WetterOnline ( http://www.wetteronline.de )

Wetter aktuell Frankfurt am Main

Aktuelles Wetter: Offenbach (119m)

6-stündlich | Neueste Meldungen
Ortszeit Temperatur Wetter
Di, 11.12. 19:00 3.1° C bewölkt
Di, 11.12. 13:00 5.9° C bewölkt
Di, 11.12. 7:00 3.6° C Sprühregen
Di, 11.12. 1:00 4.9° C bewölkt
Mo, 10.12. 19:00 4.7° C bewölkt
Mo, 10.12. 13:00 6.5° C Sprühregen
Mo, 10.12. 7:00 3.6° C Sprühregen
Mo, 10.12. 1:00 6.4° C -
Ortszeit Temperatur Wetter
Di, 11.12. 20:30 3.5° C bedeckt
Di, 11.12. 20:20 3.5° C bedeckt
Di, 11.12. 20:10 3.4° C bedeckt
Di, 11.12. 20:00 3.4° C bedeckt
Di, 11.12. 19:50 3.4° C bedeckt
Di, 11.12. 19:40 3.2° C bedeckt
Di, 11.12. 19:30 3.3° C bewölkt
Di, 11.12. 19:00 3.1° C bewölkt
Di, 11.12. 18:30 3.5° C bewölkt
Di, 11.12. 18:00 3.6° C bewölkt
Di, 11.12. 17:30 4.1° C bewölkt
Ortszeit Relative Feuchte Sichtweite
Di, 11.12. 19:00 84% 35 km
Di, 11.12. 13:00 73% 45 km
Di, 11.12. 7:00 87% 11 km
Di, 11.12. 1:00 73% 40 km
Mo, 10.12. 19:00 76% 50 km
Mo, 10.12. 13:00 69% 30 km
Mo, 10.12. 7:00 89% 28 km
Mo, 10.12. 1:00 77% 35 km
Ortszeit Relative Feuchte Sichtweite
Di, 11.12. 20:30 84% 30 km
Di, 11.12. 20:20 84% -
Di, 11.12. 20:10 84% -
Di, 11.12. 20:00 84% 30 km
Di, 11.12. 19:50 84% -
Di, 11.12. 19:40 85% -
Di, 11.12. 19:30 84% 35 km
Di, 11.12. 19:00 84% 35 km
Di, 11.12. 18:30 81% 35 km
Di, 11.12. 18:00 81% 30 km
Di, 11.12. 17:30 78% 35 km
Ortszeit Niederschlagsmenge Niederschlagsart
Di, 11.12. 19:00 0.1 l/m2 in 12 Std. -
Di, 11.12. 13:00 0.1 l/m2 in 6 Std. Regen
Di, 11.12. 7:00 0.1 l/m2 in 12 Std. Regen
Di, 11.12. 1:00 0.1 l/m2 in 6 Std. Regen
Mo, 10.12. 19:00 0.5 l/m2 in 12 Std. Regen
Mo, 10.12. 13:00 0.3 l/m2 in 6 Std. Regen
Mo, 10.12. 7:00 0.7 l/m2 in 12 Std. Regen
Mo, 10.12. 1:00 0.1 l/m2 in 6 Std. Regen
Ortszeit Niederschlagsmenge Niederschlagsart
Di, 11.12. 20:30 0.1 l/m2 in 1 Std. Schnee
Di, 11.12. 20:20 keine Meldung -
Di, 11.12. 20:10 keine Meldung -
Di, 11.12. 20:00 0.0 l/m2 in 1 Std. -
Di, 11.12. 19:50 keine Meldung -
Di, 11.12. 19:40 keine Meldung -
Di, 11.12. 19:30 0.0 l/m2 in 1 Std. -
Di, 11.12. 19:00 0.0 l/m2 in 1 Std. -
Di, 11.12. 18:30 0.0 l/m2 in 1 Std. -
Di, 11.12. 18:00 0.0 l/m2 in 1 Std. -
Di, 11.12. 17:30 0.0 l/m2 in 1 Std. -
Ortszeit Stärke Spitze Richtung
km/h Bft. km/h Grad Sektor
Di, 11.12. 19:00 7 2 25 250° W
Di, 11.12. 13:00 13 3 28 260° W
Di, 11.12. 7:00 13 3 26 250° W
Di, 11.12. 1:00 11 2 36 240° SW
Mo, 10.12. 19:00 9 2 33 280° W
Mo, 10.12. 13:00 18 3 32 270° W
Mo, 10.12. 7:00 7 2 54 230° SW
Mo, 10.12. 1:00 14 3 36 270° W
Ortszeit Stärke Spitze Richtung
km/h Bft. km/h Grad Sektor
Di, 11.12. 20:30 6 1 9 240° SW
Di, 11.12. 20:20 6 1 - 240° SW
Di, 11.12. 20:10 6 1 - 250° W
Di, 11.12. 20:00 4 1 11 240° SW
Di, 11.12. 19:50 4 1 - 240° SW
Di, 11.12. 19:40 4 1 - 210° SW
Di, 11.12. 19:30 6 1 9 240° SW
Di, 11.12. 19:00 7 2 14 250° W
Di, 11.12. 18:30 9 2 15 240° SW
Di, 11.12. 18:00 7 2 11 240° SW
Di, 11.12. 17:30 7 2 11 250° W
Ortszeit Untergrenze Bedeckung Gattung
total tief tief mittel hoch
Di, 11.12. 19:00 1800 m 7/8 7/8 - - -
Di, 11.12. 13:00 810 m 7/8 7/8 - - -
Di, 11.12. 7:00 480 m 7/8 7/8 - - -
Di, 11.12. 1:00 780 m 7/8 7/8 - - -
Mo, 10.12. 19:00 990 m 8/8 6/8 - - -
Mo, 10.12. 13:00 720 m 7/8 7/8 - - -
Mo, 10.12. 7:00 - - - - - -
Mo, 10.12. 1:00 - - - - - -
Ortszeit Bedeckungsgrad in Achtel und Wolkenuntergrenze
Di, 11.12. 20:30 8(1800m)
Di, 11.12. 20:20 8(1800m)
Di, 11.12. 20:10 8(1800m)
Di, 11.12. 20:00 8(1800m)
Di, 11.12. 19:50 8(1800m)
Di, 11.12. 19:40 8(1800m)
Di, 11.12. 19:30 7(1800m)
Di, 11.12. 19:00 7(1800m)
Di, 11.12. 18:30 7(2100m)
Di, 11.12. 18:00 7(2100m)
Di, 11.12. 17:30 5(1200m) 7(1800m)
Ortszeit Luftdruck NN (hPa) Tendenz (hPa in 3 Std.)
Di, 11.12. 19:00 1024 + 0,7
Di, 11.12. 13:00 1023 - 0,4
Di, 11.12. 7:00 1023 0,0
Di, 11.12. 1:00 1023 + 0,4
Mo, 10.12. 19:00 1022 + 1,0
Mo, 10.12. 13:00 1021 + 0,2
Mo, 10.12. 7:00 1020 + 1,5
Mo, 10.12. 1:00 1015 + 3,2
Ortszeit Luftdruck NN (hPa) Tendenz (hPa in 3 Std.)
Di, 11.12. 20:30 1024 + 0,8
Di, 11.12. 20:20 1024 keine Meldung
Di, 11.12. 20:10 1024 keine Meldung
Di, 11.12. 20:00 1024 + 0,7
Di, 11.12. 19:50 1024 keine Meldung
Di, 11.12. 19:40 1024 keine Meldung
Di, 11.12. 19:30 1024 + 0,8
Di, 11.12. 19:00 1024 + 0,7
Di, 11.12. 18:30 1024 + 0,6
Di, 11.12. 18:00 1023 + 0,3
Di, 11.12. 17:30 1023 + 0,1
Ortszeit Schneehöhe (cm)
Di, 11.12. 19:00 0
Di, 11.12. 13:00 0
Di, 11.12. 7:00 0
Di, 11.12. 1:00 0
Mo, 10.12. 19:00 0
Mo, 10.12. 13:00 0
Mo, 10.12. 7:00 0
Mo, 10.12. 1:00 0
Ortszeit Schneehöhe (cm)
Di, 11.12. 20:30 0
Di, 11.12. 20:20 0
Di, 11.12. 20:10 0
Di, 11.12. 20:00 0
Di, 11.12. 19:50 0
Di, 11.12. 19:40 0
Di, 11.12. 19:30 0
Di, 11.12. 19:00 0
Di, 11.12. 18:30 0
Di, 11.12. 18:00 0
Di, 11.12. 17:30 0
Link zu dieser Seite / Seite empfehlen

Das Wetter in ...